Time;durP1;ratioP1;P1;durP2;ratioP2;P2;SDS_P1;SDS_P2;PMS_P1;PMS_P2;Temp;Humidity;BMP_temperature;BMP_pressure;BME280_temperature;BME280_humidity;BME280_pressure;Samples;Min_cycle;Max_cycle;Signal;HPM_P1;HPM_P2
2024/04/07 00:00:03;;;;;;;2.30;2.00;;;;;;;22.01;36.00;100793.89;107637;1267;70021;-87
2024/04/07 00:02:29;;;;;;;1.70;1.60;;;;;;;22.01;36.08;100792.86;107723;1267;69963;-87
2024/04/07 00:04:55;;;;;;;2.40;1.60;;;;;;;22.01;36.11;100799.07;107570;1267;68697;-87
2024/04/07 00:07:20;;;;;;;2.90;1.90;;;;;;;22.01;36.17;100797.78;107654;1267;70048;-87
2024/04/07 00:12:26;;;;;;;2.20;1.90;;;;;;;22.00;36.04;100804.59;107706;1266;69960;-87
2024/04/07 00:14:53;;;;;;;2.60;1.80;;;;;;;21.99;36.11;100808.90;107535;1272;70220;-87
2024/04/07 00:17:19;;;;;;;3.00;1.90;;;;;;;22.00;36.05;100809.20;107551;1267;69954;-86
2024/04/07 00:19:46;;;;;;;2.40;1.80;;;;;;;21.99;36.12;100809.46;107708;1267;69826;-87
2024/04/07 00:22:12;;;;;;;3.20;1.80;;;;;;;21.99;36.21;100812.08;107642;1267;69819;-87
2024/04/07 00:24:37;;;;;;;1.70;1.60;;;;;;;21.99;36.08;100813.20;107607;1266;70085;-87
2024/04/07 00:27:03;;;;;;;2.60;1.80;;;;;;;21.99;36.09;100821.25;107654;1271;70058;-87
2024/04/07 00:29:29;;;;;;;2.90;1.60;;;;;;;21.99;36.13;100827.95;107594;1267;70053;-86
2024/04/07 00:31:54;;;;;;;2.80;2.10;;;;;;;21.99;36.27;100831.39;107626;1267;67870;-87
2024/04/07 00:34:21;;;;;;;3.00;2.10;;;;;;;21.99;36.11;100831.04;107770;1267;69985;-87
2024/04/07 00:36:49;;;;;;;3.10;2.10;;;;;;;21.99;36.27;100836.56;107574;1267;68031;-92
2024/04/07 00:39:16;;;;;;;2.70;2.00;;;;;;;21.98;36.16;100836.20;107518;1267;82896;-87
2024/04/07 00:41:42;;;;;;;2.20;1.80;;;;;;;21.98;36.30;100838.41;107535;1266;67948;-87
2024/04/07 00:44:08;;;;;;;3.80;2.40;;;;;;;21.98;36.28;100838.05;107730;1267;69885;-87
2024/04/07 00:46:34;;;;;;;4.30;2.30;;;;;;;21.98;36.30;100833.64;107594;1271;69907;-87
2024/04/07 00:49:00;;;;;;;2.80;2.20;;;;;;;21.97;36.31;100838.20;107673;1267;69957;-87
2024/04/07 00:51:28;;;;;;;2.60;2.10;;;;;;;21.98;36.40;100835.74;107509;1267;83695;-87
2024/04/07 00:53:54;;;;;;;2.50;1.70;;;;;;;21.97;36.36;100833.34;107536;1271;70105;-87
2024/04/07 00:56:20;;;;;;;3.10;2.10;;;;;;;21.97;36.36;100837.27;107617;1267;68458;-87
2024/04/07 00:58:46;;;;;;;2.90;2.10;;;;;;;21.97;36.50;100839.53;107622;1270;69991;-87
2024/04/07 01:01:11;;;;;;;3.20;2.00;;;;;;;21.96;36.47;100841.88;107656;1267;70146;-87
2024/04/07 01:06:18;;;;;;;2.60;2.10;;;;;;;21.96;36.60;100837.08;107868;1264;69875;-87
2024/04/07 01:08:44;;;;;;;2.10;1.90;;;;;;;21.95;36.56;100841.21;107625;1264;70189;-87
2024/04/07 01:11:10;;;;;;;3.50;2.20;;;;;;;21.96;36.51;100842.08;107747;1267;70046;-87
2024/04/07 01:13:36;;;;;;;3.00;2.10;;;;;;;21.96;36.69;100841.52;107845;1264;69789;-87
2024/04/07 01:16:01;;;;;;;2.80;2.20;;;;;;;21.95;36.59;100840.86;107967;1264;69835;-86
2024/04/07 01:21:09;;;;;;;3.20;2.10;;;;;;;21.95;36.58;100845.67;107799;1268;75152;-86
2024/04/07 01:23:35;;;;;;;2.40;2.20;;;;;;;21.95;36.64;100845.21;107579;1268;68951;-87
2024/04/07 01:26:01;;;;;;;2.70;2.10;;;;;;;21.94;36.69;100843.73;107486;1274;70054;-87
2024/04/07 01:28:26;;;;;;;3.00;2.30;;;;;;;21.94;36.65;100843.31;107727;1267;68104;-86
2024/04/07 01:30:52;;;;;;;4.10;2.20;;;;;;;21.94;36.70;100839.06;107902;1268;69903;-87
2024/04/07 01:33:18;;;;;;;2.50;2.00;;;;;;;21.93;36.62;100836.55;107754;1267;83004;-87
2024/04/07 01:35:46;;;;;;;2.30;2.00;;;;;;;21.94;36.75;100840.75;107878;1267;68819;-87
2024/04/07 01:38:13;;;;;;;2.70;2.20;;;;;;;21.94;36.60;100837.54;107915;1267;70005;-87
2024/04/07 01:40:39;;;;;;;3.80;2.30;;;;;;;21.94;36.74;100833.38;108063;1270;69964;-87
2024/04/07 01:43:05;;;;;;;2.90;2.10;;;;;;;21.94;36.68;100834.10;107927;1267;69980;-87
2024/04/07 01:45:34;;;;;;;2.30;2.10;;;;;;;21.94;36.83;100839.88;107991;1267;83397;-92
2024/04/07 01:48:01;;;;;;;3.00;2.10;;;;;;;21.94;36.80;100838.45;107874;1267;72368;-87
2024/04/07 01:50:27;;;;;;;2.50;1.90;;;;;;;21.94;36.72;100836.39;107921;1267;70375;-87
2024/04/07 01:52:53;;;;;;;3.30;2.10;;;;;;;21.94;36.68;100837.36;107894;1267;70040;-87
2024/04/07 01:55:19;;;;;;;2.80;2.00;;;;;;;21.94;36.74;100837.02;107838;1267;70018;-87
2024/04/07 01:57:45;;;;;;;2.50;2.10;;;;;;;21.94;36.71;100833.13;107848;1266;69970;-87
2024/04/07 02:00:11;;;;;;;2.20;1.90;;;;;;;21.94;36.79;100830.70;107758;1267;67931;-87
2024/04/07 02:02:37;;;;;;;2.40;2.20;;;;;;;21.93;36.76;100829.54;107792;1267;69981;-87
2024/04/07 02:05:05;;;;;;;2.60;2.10;;;;;;;21.93;36.76;100832.45;107863;1269;68717;-87
2024/04/07 02:07:33;;;;;;;3.00;2.40;;;;;;;21.92;36.66;100838.02;107916;1273;68101;-87
2024/04/07 02:09:59;;;;;;;2.90;2.30;;;;;;;21.93;36.81;100842.13;107925;1267;68389;-87
2024/04/07 02:12:24;;;;;;;2.20;2.00;;;;;;;21.92;36.71;100844.48;107740;1273;70078;-87
2024/04/07 02:14:50;;;;;;;3.10;2.70;;;;;;;21.92;36.79;100845.31;107778;1267;69938;-87
2024/04/07 02:17:17;;;;;;;2.70;2.20;;;;;;;21.92;36.78;100847.16;107836;1267;67988;-87
2024/04/07 02:19:43;;;;;;;3.90;2.60;;;;;;;21.92;36.74;100847.83;107827;1268;69972;-87
2024/04/07 02:22:09;;;;;;;3.60;2.30;;;;;;;21.91;36.85;100844.65;107865;1267;68728;-88
2024/04/07 02:24:34;;;;;;;3.70;2.30;;;;;;;21.92;36.79;100845.41;107850;1268;69977;-87
2024/04/07 02:27:01;;;;;;;2.70;2.00;;;;;;;21.91;36.77;100847.92;107994;1267;68887;-87
2024/04/07 02:29:28;;;;;;;3.20;2.30;;;;;;;21.91;36.82;100850.53;107855;1272;68072;-86
2024/04/07 02:31:53;;;;;;;4.10;2.30;;;;;;;21.91;36.86;100848.28;107807;1267;67700;-87
2024/04/07 02:34:19;;;;;;;3.40;2.40;;;;;;;21.91;36.93;100849.52;107744;1267;68146;-87
2024/04/07 02:36:46;;;;;;;2.70;2.10;;;;;;;21.91;36.84;100850.19;107724;1267;68930;-87
2024/04/07 02:41:55;;;;;;;3.80;2.40;;;;;;;21.90;36.93;100858.83;107871;1268;75968;-87
2024/04/07 02:48:04;;;;;;;3.40;2.40;;;;;;;21.90;36.97;100857.71;107876;1265;69912;-88
2024/04/07 02:49:50;;;;;;;3.00;2.50;;;;;;;21.89;36.94;100865.45;107753;1267;68673;-87
2024/04/07 02:52:16;;;;;;;4.80;2.80;;;;;;;21.89;37.02;100865.61;107811;1267;68645;-88
2024/04/07 02:54:42;;;;;;;4.00;2.80;;;;;;;21.89;37.08;100865.75;107800;1267;68036;-88
2024/04/07 02:59:51;;;;;;;2.50;2.30;;;;;;;21.88;37.02;100879.69;108058;1267;73137;-87
2024/04/07 03:02:20;;;;;;;3.30;2.50;;;;;;;21.87;36.97;100879.06;107799;1268;70016;-87
2024/04/07 03:04:49;;;;;;;3.70;2.60;;;;;;;21.87;37.11;100880.80;107921;1267;67706;-87
2024/04/07 03:07:15;;;;;;;3.60;2.80;;;;;;;21.87;37.12;100880.54;107955;1267;77016;-87
2024/04/07 03:09:41;;;;;;;3.50;2.40;;;;;;;21.87;37.12;100881.17;107973;1267;70088;-87
2024/04/07 03:14:54;;;;;;;4.50;2.60;;;;;;;21.87;37.13;100883.63;107841;1267;68179;-87
2024/04/07 03:17:20;;;;;;;3.70;2.80;;;;;;;21.86;37.19;100886.08;107977;1266;69874;-88
2024/04/07 03:19:46;;;;;;;3.70;2.60;;;;;;;21.86;37.19;100890.95;107960;1267;67435;-87
2024/04/07 03:22:11;;;;;;;3.90;2.60;;;;;;;21.86;37.10;100888.95;107571;1267;69824;-86
2024/04/07 03:24:37;;;;;;;4.60;2.90;;;;;;;21.86;37.08;100892.95;107609;1267;69955;-87
2024/04/07 03:29:43;;;;;;;4.30;2.60;;;;;;;21.85;37.14;100897.55;108552;1266;67672;-87
2024/04/07 03:32:10;;;;;;;8.20;3.10;;;;;;;21.85;37.13;100903.86;108414;1266;69971;-87
2024/04/07 03:34:35;;;;;;;3.80;2.90;;;;;;;21.85;37.02;100903.60;108004;1267;67850;-87
2024/04/07 03:37:01;;;;;;;4.60;3.00;;;;;;;21.85;37.24;100902.72;107699;1267;70104;-87
2024/04/07 03:39:28;;;;;;;4.10;3.20;;;;;;;21.85;37.16;100901.86;107717;1267;68806;-87
2024/04/07 03:41:54;;;;;;;4.20;3.30;;;;;;;21.84;37.16;100900.93;107526;1267;76198;-87
2024/04/07 03:44:20;;;;;;;5.20;3.70;;;;;;;21.84;37.14;100897.14;107835;1267;69988;-87
2024/04/07 03:46:49;;;;;;;6.40;3.40;;;;;;;21.84;37.13;100904.58;107641;1267;70092;-87
2024/04/07 03:49:14;;;;;;;5.00;3.40;;;;;;;21.83;37.26;100907.02;107546;1266;69850;-87
2024/04/07 03:51:40;;;;;;;4.00;3.20;;;;;;;21.83;37.14;100909.02;107759;1265;69939;-87
2024/04/07 03:54:07;;;;;;;4.80;3.60;;;;;;;21.83;37.22;100906.00;107857;1267;69935;-92
2024/04/07 03:56:33;;;;;;;5.70;3.40;;;;;;;21.82;37.20;100905.21;107759;1267;70191;-88
2024/04/07 03:58:59;;;;;;;4.30;3.50;;;;;;;21.83;37.12;100910.77;107809;1269;69974;-87
2024/04/07 04:01:25;;;;;;;5.40;4.10;;;;;;;21.83;37.23;100913.11;107661;1267;70009;-87
2024/04/07 04:03:54;;;;;;;5.30;3.70;;;;;;;21.82;37.32;100908.96;107836;1267;67583;-88
2024/04/07 04:06:20;;;;;;;6.40;4.00;;;;;;;21.82;37.14;100915.41;107864;1267;68206;-88
2024/04/07 04:08:46;;;;;;;5.10;3.90;;;;;;;21.82;37.17;100918.48;107750;1267;70101;-87
2024/04/07 04:11:12;;;;;;;5.30;4.20;;;;;;;21.81;37.23;100919.98;107677;1270;68556;-87
2024/04/07 04:13:38;;;;;;;5.10;4.20;;;;;;;21.81;37.22;100920.48;107865;1265;69975;-87
2024/04/07 04:16:08;;;;;;;5.20;4.00;;;;;;;21.81;37.22;100920.53;107835;1265;67905;-87
2024/04/07 04:18:34;;;;;;;5.80;4.10;;;;;;;21.81;37.22;100922.59;107916;1265;75127;-87
2024/04/07 04:21:07;;;;;;;5.70;4.50;;;;;;;21.80;37.19;100927.61;107838;1265;69875;-92
2024/04/07 04:23:32;;;;;;;8.50;4.70;;;;;;;21.80;37.18;100929.44;107690;1265;72322;-87
2024/04/07 04:25:59;;;;;;;8.40;4.40;;;;;;;21.80;37.22;100933.44;107808;1265;69989;-87
2024/04/07 04:28:25;;;;;;;5.40;4.10;;;;;;;21.80;37.33;100937.98;107785;1266;70024;-87
2024/04/07 04:30:54;;;;;;;5.40;4.10;;;;;;;21.80;37.26;100941.18;107730;1265;70024;-87
2024/04/07 04:33:21;;;;;;;9.50;4.20;;;;;;;21.79;37.16;100951.58;107963;1265;81978;-88
2024/04/07 04:36:13;;;;;;;5.30;4.00;;;;;;;21.79;37.21;100957.41;107745;1265;72531;-91
2024/04/07 04:38:39;;;;;;;6.60;3.90;;;;;;;21.78;37.17;100960.16;107757;1265;70012;-87
2024/04/07 04:41:05;;;;;;;5.60;4.20;;;;;;;21.78;37.22;100967.19;107864;1265;69883;-87
2024/04/07 04:43:31;;;;;;;7.90;4.10;;;;;;;21.78;37.13;100973.70;107933;1265;68032;-87
2024/04/07 04:46:06;;;;;;;6.00;4.20;;;;;;;21.78;37.26;100974.66;107852;1265;68696;-87
2024/04/07 04:48:33;;;;;;;5.40;4.30;;;;;;;21.77;37.33;100978.25;107701;1265;72253;-87
2024/04/07 04:50:59;;;;;;;5.40;4.10;;;;;;;21.78;37.16;100979.13;107881;1265;69772;-88
2024/04/07 04:53:25;;;;;;;6.10;3.90;;;;;;;21.77;37.20;100977.54;107722;1265;69957;-87
2024/04/07 04:55:52;;;;;;;7.40;4.20;;;;;;;21.77;37.12;100980.30;107805;1265;68711;-88
2024/04/07 04:58:19;;;;;;;6.00;4.60;;;;;;;21.77;37.27;100981.89;107780;1270;70025;-88
2024/04/07 05:00:47;;;;;;;5.10;4.10;;;;;;;21.77;37.19;100980.91;107976;1265;69831;-88
2024/04/07 05:03:14;;;;;;;5.10;4.10;;;;;;;21.77;37.23;100985.84;107905;1265;69826;-87
2024/04/07 05:08:23;;;;;;;5.00;3.90;;;;;;;21.77;37.16;100989.05;107999;1265;75203;-87
2024/04/07 05:10:49;;;;;;;5.10;4.20;;;;;;;21.76;37.03;100992.07;107826;1270;82896;-87
2024/04/07 05:13:16;;;;;;;5.80;4.10;;;;;;;21.77;37.08;100998.02;107906;1265;70159;-87
2024/04/07 05:15:42;;;;;;;9.90;4.10;;;;;;;21.77;37.05;100998.38;107911;1265;69978;-87
2024/04/07 05:18:08;;;;;;;5.60;3.90;;;;;;;21.77;37.17;101007.23;107932;1265;70126;-88
2024/04/07 05:23:22;;;;;;;4.40;3.90;;;;;;;21.77;37.08;101006.06;107997;1270;80043;-86
2024/04/07 05:25:48;;;;;;;5.90;4.20;;;;;;;21.76;37.15;101004.17;108022;1270;69858;-86
2024/04/07 05:28:14;;;;;;;4.10;3.60;;;;;;;21.77;37.09;101003.50;107906;1268;69899;-86
2024/04/07 05:30:39;;;;;;;5.70;4.00;;;;;;;21.77;37.17;101005.55;107931;1268;68166;-86
2024/04/07 05:33:06;;;;;;;5.60;3.70;;;;;;;21.77;37.18;101009.95;107664;1275;68057;-86
2024/04/07 05:38:13;;;;;;;4.90;3.70;;;;;;;21.78;37.00;101014.61;108042;1268;72491;-85
2024/04/07 05:40:40;;;;;;;5.20;3.80;;;;;;;21.77;37.18;101014.62;107940;1268;69078;-86
2024/04/07 05:43:06;;;;;;;6.30;3.90;;;;;;;21.78;36.98;101017.34;107894;1267;68618;-86
2024/04/07 05:45:32;;;;;;;5.00;3.50;;;;;;;21.78;37.10;101015.70;107814;1267;70034;-86
2024/04/07 05:47:59;;;;;;;5.90;3.20;;;;;;;21.79;37.00;101018.16;107916;1268;68121;-87
2024/04/07 05:50:26;;;;;;;4.80;3.70;;;;;;;21.79;37.04;101019.08;107885;1267;68232;-86
2024/04/07 05:52:52;;;;;;;4.90;3.60;;;;;;;21.80;37.05;101017.19;107916;1268;67637;-86
2024/04/07 05:55:18;;;;;;;4.90;3.60;;;;;;;21.81;37.15;101020.05;107991;1267;69782;-86
2024/04/07 05:57:46;;;;;;;4.10;3.50;;;;;;;21.82;37.04;101019.77;107876;1268;67986;-87
2024/04/07 06:00:13;;;;;;;4.40;3.10;;;;;;;21.83;36.89;101022.64;107869;1267;82882;-86
2024/04/07 06:02:39;;;;;;;4.60;3.20;;;;;;;21.84;36.92;101026.13;107874;1267;69967;-91
2024/04/07 06:05:06;;;;;;;6.50;3.50;;;;;;;21.85;36.90;101022.49;107628;1269;70114;-88
2024/04/07 06:07:32;;;;;;;4.20;3.30;;;;;;;21.87;36.93;101028.61;107671;1267;68975;-87
2024/04/07 06:09:58;;;;;;;3.50;3.00;;;;;;;21.87;36.76;101033.77;107710;1268;68124;-88
2024/04/07 06:12:24;;;;;;;4.70;3.00;;;;;;;21.88;36.85;101037.06;107832;1267;68138;-88
2024/04/07 06:14:49;;;;;;;3.90;2.90;;;;;;;21.89;36.79;101031.13;107746;1267;70031;-88
2024/04/07 06:17:16;;;;;;;5.00;3.00;;;;;;;21.89;36.73;101037.17;107588;1268;68208;-88
2024/04/07 06:19:42;;;;;;;4.10;2.90;;;;;;;21.90;36.58;101036.04;107716;1267;75082;-88
2024/04/07 06:22:08;;;;;;;5.50;2.60;;;;;;;21.90;36.49;101036.40;107726;1268;70031;-88
2024/04/07 06:24:35;;;;;;;4.30;2.80;;;;;;;21.92;36.47;101034.92;107683;1267;70424;-87
2024/04/07 06:27:01;;;;;;;3.90;2.80;;;;;;;21.92;36.39;101037.89;107728;1268;68019;-87
2024/04/07 06:29:34;;;;;;;4.20;2.90;;;;;;;21.92;36.25;101039.79;107658;1270;69990;-93
2024/04/07 06:32:00;;;;;;;4.20;2.60;;;;;;;21.93;36.38;101031.39;107714;1268;75338;-88
2024/04/07 06:34:27;;;;;;;4.20;2.90;;;;;;;21.93;36.41;101037.49;107681;1267;82802;-88
2024/04/07 06:36:53;;;;;;;4.30;2.90;;;;;;;21.94;36.31;101040.61;107715;1273;68069;-87
2024/04/07 06:39:18;;;;;;;3.60;2.80;;;;;;;21.94;36.20;101043.49;107680;1268;70025;-88
2024/04/07 06:41:44;;;;;;;3.50;2.50;;;;;;;21.95;36.26;101047.70;107680;1267;70012;-89
2024/04/07 06:44:11;;;;;;;3.80;2.60;;;;;;;21.95;35.98;101045.02;107677;1268;69968;-86
2024/04/07 06:46:37;;;;;;;2.80;2.30;;;;;;;21.96;35.98;101044.11;107858;1268;70015;-87
2024/04/07 06:49:03;;;;;;;2.80;2.40;;;;;;;21.96;35.97;101052.45;107669;1274;67571;-87
2024/04/07 06:51:31;;;;;;;3.80;2.50;;;;;;;21.96;36.00;101052.83;107486;1268;70029;-86
2024/04/07 06:53:58;;;;;;;2.80;2.30;;;;;;;21.97;35.91;101056.67;107872;1268;75196;-86
2024/04/07 06:56:28;;;;;;;3.20;2.30;;;;;;;21.97;35.85;101058.98;107570;1267;68056;-93
2024/04/07 06:58:54;;;;;;;3.60;2.40;;;;;;;21.98;35.79;101061.19;107492;1270;73394;-86
2024/04/07 07:01:20;;;;;;;3.90;2.70;;;;;;;21.98;35.76;101067.34;107575;1267;70051;-86
2024/04/07 07:03:45;;;;;;;3.80;2.10;;;;;;;21.98;35.60;101062.02;107613;1267;69976;-86
2024/04/07 07:06:14;;;;;;;4.10;2.30;;;;;;;21.98;35.56;101061.23;107571;1268;69054;-86
2024/04/07 07:08:42;;;;;;;3.30;2.10;;;;;;;21.99;35.44;101058.47;107649;1267;69815;-86
2024/04/07 07:11:09;;;;;;;2.60;2.20;;;;;;;21.99;35.66;101062.58;107501;1268;72110;-86
2024/04/07 07:13:41;;;;;;;2.60;2.10;;;;;;;21.99;35.52;101070.06;107867;1268;70012;-86
2024/04/07 07:16:07;;;;;;;2.50;2.00;;;;;;;22.00;35.49;101066.38;108055;1267;69838;-88
2024/04/07 07:18:33;;;;;;;4.20;2.00;;;;;;;21.99;35.23;101065.91;108516;1268;67503;-86
2024/04/07 07:21:00;;;;;;;2.90;1.90;;;;;;;22.01;35.25;101061.98;108442;1268;67981;-86
2024/04/07 07:23:26;;;;;;;3.50;2.10;;;;;;;22.01;35.20;101065.57;108643;1267;69916;-88
2024/04/07 07:25:53;;;;;;;2.40;2.00;;;;;;;22.02;35.14;101072.28;107857;1268;68706;-86
2024/04/07 07:28:20;;;;;;;3.80;1.90;;;;;;;22.03;35.08;101068.99;107940;1268;68042;-87
2024/04/07 07:30:46;;;;;;;2.10;1.80;;;;;;;22.03;35.15;101073.93;107766;1267;67584;-86
2024/04/07 07:33:14;;;;;;;3.30;1.90;;;;;;;22.04;34.97;101084.02;107712;1268;70080;-86
2024/04/07 07:35:42;;;;;;;3.20;1.90;;;;;;;22.04;34.86;101078.85;107685;1268;69771;-86
2024/04/07 07:40:50;;;;;;;2.80;2.10;;;;;;;22.05;34.82;101087.51;107880;1268;69859;-88
2024/04/07 07:43:16;;;;;;;2.80;2.00;;;;;;;22.05;34.89;101084.20;107724;1268;70106;-87
2024/04/07 07:45:46;;;;;;;2.70;2.00;;;;;;;22.06;34.61;101077.73;107718;1271;69830;-88
2024/04/07 07:48:12;;;;;;;2.30;1.80;;;;;;;22.06;34.55;101082.45;107978;1266;72382;-88
2024/04/07 07:50:42;;;;;;;3.00;1.90;;;;;;;22.07;34.63;101083.37;108060;1268;70266;-88
2024/04/07 07:53:17;;;;;;;3.30;1.90;;;;;;;22.07;34.42;101080.45;107748;1267;69041;-91
2024/04/07 07:55:43;;;;;;;2.70;2.00;;;;;;;22.07;34.59;101086.19;107865;1270;73971;-88
2024/04/07 07:58:09;;;;;;;3.80;1.80;;;;;;;22.08;34.51;101088.96;107940;1267;69919;-88
2024/04/07 08:00:35;;;;;;;2.50;1.90;;;;;;;22.08;34.38;101093.94;107710;1266;70102;-88
2024/04/07 08:03:01;;;;;;;8.30;1.90;;;;;;;22.09;34.30;101096.30;107871;1268;67510;-88
2024/04/07 08:05:26;;;;;;;3.40;1.90;;;;;;;22.10;34.24;101100.45;107847;1267;67739;-87
2024/04/07 08:07:52;;;;;;;4.60;1.90;;;;;;;22.10;34.25;101101.48;107716;1266;70061;-88
2024/04/07 08:10:17;;;;;;;2.60;1.90;;;;;;;22.11;34.24;101108.27;107842;1267;72350;-89
2024/04/07 08:12:46;;;;;;;2.10;1.80;;;;;;;22.12;34.17;101102.11;107693;1267;69909;-87
2024/04/07 08:15:14;;;;;;;2.90;1.80;;;;;;;22.12;34.17;101112.46;107738;1268;69881;-88
2024/04/07 08:17:39;;;;;;;3.60;1.90;;;;;;;22.13;34.18;101113.60;107762;1267;75668;-88
2024/04/07 08:20:13;;;;;;;3.10;2.10;;;;;;;22.13;34.09;101115.70;107761;1267;70013;-92
2024/04/07 08:22:38;;;;;;;3.90;2.10;;;;;;;22.13;34.10;101115.19;107841;1268;72747;-87
2024/04/07 08:25:05;;;;;;;2.30;1.90;;;;;;;22.13;34.08;101126.63;107721;1269;69983;-87
2024/04/07 08:27:33;;;;;;;3.10;1.70;;;;;;;22.13;34.05;101123.65;107806;1267;69958;-88
2024/04/07 08:29:58;;;;;;;2.60;1.70;;;;;;;22.14;33.93;101124.92;107805;1267;75169;-87
2024/04/07 08:32:24;;;;;;;1.70;1.50;;;;;;;22.14;34.01;101128.05;107766;1267;67483;-88
2024/04/07 08:34:51;;;;;;;3.20;2.10;;;;;;;22.14;34.01;101125.70;107726;1267;68089;-88
2024/04/07 08:37:29;;;;;;;3.70;1.90;;;;;;;22.14;33.95;101130.27;108119;1264;69883;-87
2024/04/07 08:39:55;;;;;;;2.60;2.00;;;;;;;22.14;33.93;101130.73;108020;1264;70055;-87
2024/04/07 08:42:22;;;;;;;2.50;1.60;;;;;;;22.13;33.83;101138.23;107818;1264;68134;-86
2024/04/07 08:44:48;;;;;;;3.40;1.80;;;;;;;22.13;33.85;101142.55;107685;1264;69781;-86
2024/04/07 08:47:13;;;;;;;2.20;1.60;;;;;;;22.14;33.81;101143.94;107733;1264;68390;-87
2024/04/07 08:49:41;;;;;;;2.70;1.60;;;;;;;22.14;33.73;101146.41;107797;1264;68031;-86
2024/04/07 08:52:08;;;;;;;2.70;1.40;;;;;;;22.13;33.75;101154.09;107804;1264;69844;-86
2024/04/07 08:54:34;;;;;;;2.00;1.60;;;;;;;22.13;33.83;101161.36;107804;1264;70046;-86
2024/04/07 08:57:02;;;;;;;3.20;1.50;;;;;;;22.12;33.82;101159.57;107979;1264;67515;-86
2024/04/07 08:59:28;;;;;;;3.10;1.70;;;;;;;22.12;33.67;101159.83;107792;1264;69001;-87
2024/04/07 09:02:03;;;;;;;1.90;1.50;;;;;;;22.11;33.66;101161.30;107743;1264;70033;-92
2024/04/07 09:04:32;;;;;;;2.80;1.70;;;;;;;22.12;33.60;101165.81;107786;1264;68612;-86
2024/04/07 09:07:03;;;;;;;2.70;1.70;;;;;;;22.11;33.67;101163.50;107836;1264;76070;-86
2024/04/07 09:09:32;;;;;;;2.20;1.50;;;;;;;22.12;33.71;101167.50;108010;1266;82858;-87
2024/04/07 09:12:00;;;;;;;2.80;1.60;;;;;;;22.11;33.62;101169.60;107791;1264;73472;-86
2024/04/07 09:14:27;;;;;;;1.70;1.50;;;;;;;22.11;33.72;101161.91;107941;1264;67913;-87
2024/04/07 09:17:03;;;;;;;2.80;1.30;;;;;;;22.09;33.67;101167.63;107798;1264;69853;-92
2024/04/07 09:19:36;;;;;;;2.90;1.60;;;;;;;22.10;33.49;101170.00;107700;1265;76174;-87
2024/04/07 09:22:05;;;;;;;2.80;1.80;;;;;;;22.10;33.56;101165.23;107888;1265;82618;-86
2024/04/07 09:24:41;;;;;;;3.50;1.50;;;;;;;22.11;33.69;101162.63;107814;1265;71038;-86
2024/04/07 09:27:12;;;;;;;2.20;1.30;;;;;;;22.11;33.49;101169.04;107854;1265;67998;-86
2024/04/07 09:29:41;;;;;;;2.30;1.50;;;;;;;22.13;33.63;101164.70;107691;1273;69986;-86
2024/04/07 09:32:07;;;;;;;2.20;1.30;;;;;;;22.12;33.45;101164.48;107851;1265;76053;-87
2024/04/07 09:34:35;;;;;;;2.90;1.50;;;;;;;22.11;33.51;101159.45;107652;1265;67812;-87
2024/04/07 09:37:04;;;;;;;2.70;1.60;;;;;;;22.12;33.54;101166.98;107746;1266;72244;-86
2024/04/07 09:39:30;;;;;;;2.80;1.60;;;;;;;22.11;33.41;101165.80;107820;1265;69890;-86
2024/04/07 09:42:02;;;;;;;3.20;1.60;;;;;;;22.11;33.39;101161.81;107662;1265;68117;-86
2024/04/07 09:44:36;;;;;;;2.90;1.50;;;;;;;22.11;33.44;101159.71;107886;1265;75203;-87
2024/04/07 09:47:09;;;;;;;2.40;1.40;;;;;;;22.12;33.47;101167.30;107620;1265;82812;-86
2024/04/07 09:52:19;;;;;;;2.00;1.70;;;;;;;22.12;33.44;101173.90;107711;1267;69985;-86
2024/04/07 09:54:45;;;;;;;2.30;1.60;;;;;;;22.12;33.37;101172.63;107668;1271;69966;-86
2024/04/07 09:57:13;;;;;;;2.40;1.60;;;;;;;22.12;33.40;101174.58;107575;1268;75242;-86
2024/04/07 09:59:40;;;;;;;2.70;1.40;;;;;;;22.11;33.40;101177.18;107609;1271;82870;-87
2024/04/07 10:02:06;;;;;;;1.90;1.60;;;;;;;22.11;33.35;101178.48;107752;1271;72498;-87
2024/04/07 10:07:16;;;;;;;3.50;1.60;;;;;;;22.11;33.41;101185.84;107821;1266;70069;-87
2024/04/07 10:09:43;;;;;;;2.80;1.40;;;;;;;22.11;33.49;101181.02;107742;1267;75193;-87
2024/04/07 10:12:09;;;;;;;2.90;1.40;;;;;;;22.10;33.45;101173.34;107697;1267;69090;-86
2024/04/07 10:14:36;;;;;;;2.70;1.60;;;;;;;22.10;33.39;101175.59;107626;1267;70038;-87
2024/04/07 10:17:02;;;;;;;2.30;1.50;;;;;;;22.11;33.44;101173.04;107682;1267;70250;-86
2024/04/07 10:19:27;;;;;;;2.20;1.40;;;;;;;22.12;33.44;101177.70;107596;1267;69898;-86
2024/04/07 10:21:54;;;;;;;3.90;1.70;;;;;;;22.12;33.34;101175.50;107731;1265;68612;-86
2024/04/07 10:24:20;;;;;;;2.70;1.60;;;;;;;22.12;33.39;101173.56;107892;1265;69864;-86
2024/04/07 10:26:54;;;;;;;2.10;1.50;;;;;;;22.13;33.35;101172.27;107902;1269;68275;-86
2024/04/07 10:29:20;;;;;;;2.50;1.60;;;;;;;22.14;33.22;101171.27;107629;1265;69857;-86
2024/04/07 10:31:46;;;;;;;2.60;1.50;;;;;;;22.15;33.25;101171.36;107675;1265;68140;-87
2024/04/07 10:34:13;;;;;;;3.00;1.70;;;;;;;22.15;33.28;101165.07;107614;1265;67956;-87
2024/04/07 10:36:38;;;;;;;2.10;1.60;;;;;;;22.16;33.18;101172.39;107719;1265;69995;-87
2024/04/07 10:39:04;;;;;;;2.40;1.70;;;;;;;22.17;33.24;101167.22;107822;1265;69970;-87
2024/04/07 10:41:31;;;;;;;2.30;1.40;;;;;;;22.18;33.24;101162.56;107618;1265;69842;-86
2024/04/07 10:43:57;;;;;;;2.50;1.50;;;;;;;22.18;33.20;101165.63;107512;1265;357615;-87
2024/04/07 10:46:23;;;;;;;2.40;1.60;;;;;;;22.17;33.16;101171.38;107688;1265;69761;-86
2024/04/07 10:48:55;;;;;;;2.70;1.60;;;;;;;22.16;33.25;101168.14;107706;1268;68068;-86
2024/04/07 10:51:21;;;;;;;2.50;1.50;;;;;;;22.16;33.22;101165.41;107693;1265;69977;-86
2024/04/07 10:53:56;;;;;;;1.80;1.50;;;;;;;22.15;33.24;101170.34;107553;1265;69871;-86
2024/04/07 10:56:22;;;;;;;1.90;1.40;;;;;;;22.14;33.11;101171.52;107725;1265;75093;-87
2024/04/07 10:58:47;;;;;;;2.00;1.50;;;;;;;22.14;33.16;101170.34;107577;1265;69906;-86
2024/04/07 11:01:15;;;;;;;2.30;1.60;;;;;;;22.14;33.13;101168.59;107603;1265;67924;-86
2024/04/07 11:03:42;;;;;;;2.40;1.60;;;;;;;22.14;33.15;101173.67;107582;1265;68554;-86
2024/04/07 11:06:08;;;;;;;2.50;1.50;;;;;;;22.14;33.18;101179.05;107679;1265;67995;-86
2024/04/07 11:08:34;;;;;;;2.20;1.50;;;;;;;22.15;33.14;101173.32;107574;1265;70075;-86
2024/04/07 11:11:02;;;;;;;2.50;1.80;;;;;;;22.16;33.07;101169.38;107685;1265;69955;-87
2024/04/07 11:13:28;;;;;;;2.60;1.70;;;;;;;22.16;33.01;101158.14;107718;1265;68820;-87
2024/04/07 11:15:54;;;;;;;2.10;1.50;;;;;;;22.16;33.14;101153.95;107538;1265;68922;-86
2024/04/07 11:18:20;;;;;;;1.90;1.50;;;;;;;22.18;33.09;101155.33;107747;1267;70043;-86
2024/04/07 11:20:46;;;;;;;1.90;1.60;;;;;;;22.18;33.03;101158.86;107720;1265;67741;-86
2024/04/07 11:23:12;;;;;;;2.00;1.60;;;;;;;22.19;32.93;101156.71;107636;1265;69779;-86
2024/04/07 11:25:41;;;;;;;2.00;1.60;;;;;;;22.18;33.08;101161.89;107624;1265;70100;-87
2024/04/07 11:28:11;;;;;;;2.20;1.50;;;;;;;22.18;33.09;101161.80;107655;1265;68195;-86
2024/04/07 11:30:38;;;;;;;3.00;1.50;;;;;;;22.17;32.92;101158.98;107730;1273;75068;-86
2024/04/07 11:33:06;;;;;;;2.20;1.50;;;;;;;22.17;33.04;101160.14;107689;1265;82887;-86
2024/04/07 11:35:32;;;;;;;3.40;1.50;;;;;;;22.18;33.06;101157.74;107654;1267;72295;-87
2024/04/07 11:37:57;;;;;;;1.60;1.30;;;;;;;22.19;32.91;101156.36;107595;1269;69970;-87
2024/04/07 11:40:24;;;;;;;2.40;1.50;;;;;;;22.19;32.91;101150.73;107629;1265;69909;-92
2024/04/07 11:42:49;;;;;;;3.10;1.50;;;;;;;22.18;32.94;101147.70;107665;1265;70043;-86
2024/04/07 11:45:15;;;;;;;1.80;1.50;;;;;;;22.18;32.84;101145.23;107766;1265;70280;-87
2024/04/07 11:47:42;;;;;;;2.50;1.60;;;;;;;22.18;32.94;101156.05;107678;1265;68793;-86
2024/04/07 11:50:09;;;;;;;3.30;1.50;;;;;;;22.18;32.84;101157.48;107703;1265;67958;-87
2024/04/07 11:52:38;;;;;;;2.70;1.50;;;;;;;22.19;32.89;101158.88;107731;1272;76107;-87